sensor_id;sensor_type;location;lat;lon;timestamp;P1;durP1;ratioP1;P2;durP2;ratioP2
14994;SDS011;7593;49.006;8.372;2023-05-07T00:00:21;4.00;;;3.70;;
14994;SDS011;7593;49.006;8.372;2023-05-07T00:02:47;4.50;;;3.80;;
14994;SDS011;7593;49.006;8.372;2023-05-07T00:05:14;4.13;;;3.55;;
14994;SDS011;7593;49.006;8.372;2023-05-07T00:07:42;6.47;;;3.85;;
14994;SDS011;7593;49.006;8.372;2023-05-07T00:10:09;4.80;;;3.85;;
14994;SDS011;7593;49.006;8.372;2023-05-07T00:12:38;8.13;;;3.92;;
14994;SDS011;7593;49.006;8.372;2023-05-07T00:15:06;3.50;;;3.20;;
14994;SDS011;7593;49.006;8.372;2023-05-07T00:17:33;3.53;;;3.22;;
14994;SDS011;7593;49.006;8.372;2023-05-07T00:20:00;3.85;;;2.90;;
14994;SDS011;7593;49.006;8.372;2023-05-07T00:22:28;4.93;;;3.55;;
14994;SDS011;7593;49.006;8.372;2023-05-07T00:24:55;4.95;;;3.25;;
14994;SDS011;7593;49.006;8.372;2023-05-07T00:27:22;4.63;;;3.20;;
14994;SDS011;7593;49.006;8.372;2023-05-07T00:29:50;6.88;;;3.30;;
14994;SDS011;7593;49.006;8.372;2023-05-07T00:32:17;3.30;;;3.00;;
14994;SDS011;7593;49.006;8.372;2023-05-07T00:34:43;4.22;;;3.20;;
14994;SDS011;7593;49.006;8.372;2023-05-07T00:37:10;4.75;;;3.35;;
14994;SDS011;7593;49.006;8.372;2023-05-07T00:39:37;6.40;;;3.38;;
14994;SDS011;7593;49.006;8.372;2023-05-07T00:42:04;3.17;;;2.70;;
14994;SDS011;7593;49.006;8.372;2023-05-07T00:44:30;4.18;;;3.58;;
14994;SDS011;7593;49.006;8.372;2023-05-07T00:46:59;3.50;;;3.20;;
14994;SDS011;7593;49.006;8.372;2023-05-07T00:49:33;8.27;;;3.60;;
14994;SDS011;7593;49.006;8.372;2023-05-07T00:52:05;4.80;;;3.40;;
14994;SDS011;7593;49.006;8.372;2023-05-07T00:54:33;7.82;;;3.63;;
14994;SDS011;7593;49.006;8.372;2023-05-07T00:57:01;3.65;;;3.22;;
14994;SDS011;7593;49.006;8.372;2023-05-07T00:59:29;4.80;;;3.25;;
14994;SDS011;7593;49.006;8.372;2023-05-07T01:01:59;5.15;;;3.10;;
14994;SDS011;7593;49.006;8.372;2023-05-07T01:04:26;3.80;;;3.15;;
14994;SDS011;7593;49.006;8.372;2023-05-07T01:06:53;3.42;;;3.13;;
14994;SDS011;7593;49.006;8.372;2023-05-07T01:09:22;4.20;;;3.40;;
14994;SDS011;7593;49.006;8.372;2023-05-07T01:11:50;4.00;;;3.40;;
14994;SDS011;7593;49.006;8.372;2023-05-07T01:14:17;5.07;;;3.33;;
14994;SDS011;7593;49.006;8.372;2023-05-07T01:16:46;4.60;;;3.33;;
14994;SDS011;7593;49.006;8.372;2023-05-07T01:19:14;4.20;;;3.60;;
14994;SDS011;7593;49.006;8.372;2023-05-07T01:21:44;3.95;;;3.10;;
14994;SDS011;7593;49.006;8.372;2023-05-07T01:24:14;4.63;;;3.70;;
14994;SDS011;7593;49.006;8.372;2023-05-07T01:26:41;4.75;;;3.65;;
14994;SDS011;7593;49.006;8.372;2023-05-07T01:29:08;3.85;;;3.50;;
14994;SDS011;7593;49.006;8.372;2023-05-07T01:31:35;4.65;;;3.33;;
14994;SDS011;7593;49.006;8.372;2023-05-07T01:34:03;4.60;;;3.05;;
14994;SDS011;7593;49.006;8.372;2023-05-07T01:36:31;4.28;;;3.00;;
14994;SDS011;7593;49.006;8.372;2023-05-07T01:38:58;5.45;;;3.30;;
14994;SDS011;7593;49.006;8.372;2023-05-07T01:41:27;3.85;;;2.95;;
14994;SDS011;7593;49.006;8.372;2023-05-07T01:43:54;3.50;;;3.20;;
14994;SDS011;7593;49.006;8.372;2023-05-07T01:46:23;4.47;;;3.53;;
14994;SDS011;7593;49.006;8.372;2023-05-07T01:48:50;4.25;;;3.42;;
14994;SDS011;7593;49.006;8.372;2023-05-07T01:51:17;4.72;;;3.30;;
14994;SDS011;7593;49.006;8.372;2023-05-07T01:53:45;3.50;;;3.20;;
14994;SDS011;7593;49.006;8.372;2023-05-07T01:56:15;4.40;;;3.30;;
14994;SDS011;7593;49.006;8.372;2023-05-07T01:58:44;4.10;;;3.70;;
14994;SDS011;7593;49.006;8.372;2023-05-07T02:01:12;4.18;;;3.38;;
14994;SDS011;7593;49.006;8.372;2023-05-07T02:03:39;4.68;;;3.63;;
14994;SDS011;7593;49.006;8.372;2023-05-07T02:06:05;4.75;;;3.80;;
14994;SDS011;7593;49.006;8.372;2023-05-07T02:08:32;5.15;;;4.25;;
14994;SDS011;7593;49.006;8.372;2023-05-07T02:10:59;6.78;;;4.40;;
14994;SDS011;7593;49.006;8.372;2023-05-07T02:13:26;5.82;;;3.67;;
14994;SDS011;7593;49.006;8.372;2023-05-07T02:15:56;5.93;;;3.60;;
14994;SDS011;7593;49.006;8.372;2023-05-07T02:18:23;5.38;;;3.65;;
14994;SDS011;7593;49.006;8.372;2023-05-07T02:20:50;4.68;;;3.40;;
14994;SDS011;7593;49.006;8.372;2023-05-07T02:23:17;3.85;;;3.55;;
14994;SDS011;7593;49.006;8.372;2023-05-07T02:25:43;4.13;;;3.72;;
14994;SDS011;7593;49.006;8.372;2023-05-07T02:28:11;5.97;;;3.88;;
14994;SDS011;7593;49.006;8.372;2023-05-07T02:30:38;3.97;;;3.67;;
14994;SDS011;7593;49.006;8.372;2023-05-07T02:33:06;5.15;;;3.90;;
14994;SDS011;7593;49.006;8.372;2023-05-07T02:35:33;4.88;;;3.85;;
14994;SDS011;7593;49.006;8.372;2023-05-07T02:38:00;6.55;;;3.50;;
14994;SDS011;7593;49.006;8.372;2023-05-07T02:40:26;7.35;;;4.35;;
14994;SDS011;7593;49.006;8.372;2023-05-07T02:42:53;3.95;;;3.65;;
14994;SDS011;7593;49.006;8.372;2023-05-07T02:45:21;4.85;;;4.38;;
14994;SDS011;7593;49.006;8.372;2023-05-07T02:47:48;4.78;;;4.30;;
14994;SDS011;7593;49.006;8.372;2023-05-07T02:50:16;4.20;;;3.80;;
14994;SDS011;7593;49.006;8.372;2023-05-07T02:52:43;5.03;;;3.85;;
14994;SDS011;7593;49.006;8.372;2023-05-07T02:55:10;6.78;;;3.92;;
14994;SDS011;7593;49.006;8.372;2023-05-07T02:57:36;4.88;;;3.80;;
14994;SDS011;7593;49.006;8.372;2023-05-07T03:00:10;3.85;;;3.50;;
14994;SDS011;7593;49.006;8.372;2023-05-07T03:02:38;3.90;;;3.58;;
14994;SDS011;7593;49.006;8.372;2023-05-07T03:05:05;4.32;;;3.70;;
14994;SDS011;7593;49.006;8.372;2023-05-07T03:07:34;4.63;;;3.97;;
14994;SDS011;7593;49.006;8.372;2023-05-07T03:10:01;4.63;;;3.58;;
14994;SDS011;7593;49.006;8.372;2023-05-07T03:12:27;4.40;;;3.50;;
14994;SDS011;7593;49.006;8.372;2023-05-07T03:14:54;3.85;;;3.40;;
14994;SDS011;7593;49.006;8.372;2023-05-07T03:17:21;4.15;;;3.85;;
14994;SDS011;7593;49.006;8.372;2023-05-07T03:19:48;4.95;;;4.22;;
14994;SDS011;7593;49.006;8.372;2023-05-07T03:22:14;5.60;;;4.00;;
14994;SDS011;7593;49.006;8.372;2023-05-07T03:24:42;4.13;;;3.72;;
14994;SDS011;7593;49.006;8.372;2023-05-07T03:27:09;4.15;;;3.83;;
14994;SDS011;7593;49.006;8.372;2023-05-07T03:29:36;3.60;;;3.30;;
14994;SDS011;7593;49.006;8.372;2023-05-07T03:32:03;5.57;;;3.90;;
14994;SDS011;7593;49.006;8.372;2023-05-07T03:34:30;7.28;;;3.47;;
14994;SDS011;7593;49.006;8.372;2023-05-07T03:36:57;4.10;;;3.70;;
14994;SDS011;7593;49.006;8.372;2023-05-07T03:39:24;4.82;;;3.72;;
14994;SDS011;7593;49.006;8.372;2023-05-07T03:41:52;7.53;;;4.00;;
14994;SDS011;7593;49.006;8.372;2023-05-07T03:44:19;4.90;;;3.70;;
14994;SDS011;7593;49.006;8.372;2023-05-07T03:46:46;7.72;;;3.92;;
14994;SDS011;7593;49.006;8.372;2023-05-07T03:49:12;5.43;;;4.00;;
14994;SDS011;7593;49.006;8.372;2023-05-07T03:51:39;4.38;;;3.97;;
14994;SDS011;7593;49.006;8.372;2023-05-07T03:54:06;4.38;;;3.88;;
14994;SDS011;7593;49.006;8.372;2023-05-07T03:56:33;4.25;;;3.72;;
14994;SDS011;7593;49.006;8.372;2023-05-07T03:59:01;4.93;;;3.55;;
14994;SDS011;7593;49.006;8.372;2023-05-07T04:01:28;5.43;;;3.85;;
14994;SDS011;7593;49.006;8.372;2023-05-07T04:03:55;5.00;;;3.85;;
14994;SDS011;7593;49.006;8.372;2023-05-07T04:06:22;4.88;;;3.95;;
14994;SDS011;7593;49.006;8.372;2023-05-07T04:08:49;3.92;;;3.53;;
14994;SDS011;7593;49.006;8.372;2023-05-07T04:11:16;3.92;;;3.45;;
14994;SDS011;7593;49.006;8.372;2023-05-07T04:13:42;5.47;;;3.88;;
14994;SDS011;7593;49.006;8.372;2023-05-07T04:16:10;5.05;;;3.95;;
14994;SDS011;7593;49.006;8.372;2023-05-07T04:18:37;5.53;;;4.00;;
14994;SDS011;7593;49.006;8.372;2023-05-07T04:21:04;5.05;;;3.90;;
14994;SDS011;7593;49.006;8.372;2023-05-07T04:23:31;3.50;;;3.20;;
14994;SDS011;7593;49.006;8.372;2023-05-07T04:25:58;6.05;;;4.05;;
14994;SDS011;7593;49.006;8.372;2023-05-07T04:28:25;4.78;;;4.07;;
14994;SDS011;7593;49.006;8.372;2023-05-07T04:30:52;5.43;;;4.07;;
14994;SDS011;7593;49.006;8.372;2023-05-07T04:33:20;4.25;;;3.85;;
14994;SDS011;7593;49.006;8.372;2023-05-07T04:35:47;4.40;;;3.60;;
14994;SDS011;7593;49.006;8.372;2023-05-07T04:38:14;4.13;;;3.70;;
14994;SDS011;7593;49.006;8.372;2023-05-07T04:40:41;4.75;;;3.58;;
14994;SDS011;7593;49.006;8.372;2023-05-07T04:43:08;6.30;;;3.92;;
14994;SDS011;7593;49.006;8.372;2023-05-07T04:45:35;5.32;;;3.58;;
14994;SDS011;7593;49.006;8.372;2023-05-07T04:48:02;4.00;;;3.42;;
14994;SDS011;7593;49.006;8.372;2023-05-07T04:50:30;7.10;;;3.67;;
14994;SDS011;7593;49.006;8.372;2023-05-07T04:52:57;5.43;;;3.80;;
14994;SDS011;7593;49.006;8.372;2023-05-07T04:55:24;5.00;;;3.70;;
14994;SDS011;7593;49.006;8.372;2023-05-07T04:57:51;5.22;;;3.65;;
14994;SDS011;7593;49.006;8.372;2023-05-07T05:00:19;4.07;;;3.67;;
14994;SDS011;7593;49.006;8.372;2023-05-07T05:02:46;5.10;;;3.55;;
14994;SDS011;7593;49.006;8.372;2023-05-07T05:05:13;5.00;;;4.10;;
14994;SDS011;7593;49.006;8.372;2023-05-07T05:07:41;4.30;;;3.35;;
14994;SDS011;7593;49.006;8.372;2023-05-07T05:10:07;10.98;;;5.15;;
14994;SDS011;7593;49.006;8.372;2023-05-07T05:12:35;4.57;;;3.85;;
14994;SDS011;7593;49.006;8.372;2023-05-07T05:15:02;3.60;;;3.30;;
14994;SDS011;7593;49.006;8.372;2023-05-07T05:17:29;5.47;;;3.35;;
14994;SDS011;7593;49.006;8.372;2023-05-07T05:19:56;3.92;;;3.63;;
14994;SDS011;7593;49.006;8.372;2023-05-07T05:22:22;5.00;;;3.72;;
14994;SDS011;7593;49.006;8.372;2023-05-07T05:24:52;4.95;;;4.00;;
14994;SDS011;7593;49.006;8.372;2023-05-07T05:27:18;4.05;;;3.65;;
14994;SDS011;7593;49.006;8.372;2023-05-07T05:29:45;4.75;;;3.50;;
14994;SDS011;7593;49.006;8.372;2023-05-07T05:32:12;4.45;;;3.58;;
14994;SDS011;7593;49.006;8.372;2023-05-07T05:34:39;4.10;;;3.40;;
14994;SDS011;7593;49.006;8.372;2023-05-07T05:37:05;4.18;;;3.63;;
14994;SDS011;7593;49.006;8.372;2023-05-07T05:39:32;5.45;;;3.50;;
14994;SDS011;7593;49.006;8.372;2023-05-07T05:42:00;4.57;;;3.38;;
14994;SDS011;7593;49.006;8.372;2023-05-07T05:44:27;5.82;;;3.25;;
14994;SDS011;7593;49.006;8.372;2023-05-07T05:46:54;4.18;;;3.15;;
14994;SDS011;7593;49.006;8.372;2023-05-07T05:49:22;5.32;;;3.30;;
14994;SDS011;7593;49.006;8.372;2023-05-07T05:51:49;3.38;;;3.08;;
14994;SDS011;7593;49.006;8.372;2023-05-07T05:54:16;5.38;;;3.20;;
14994;SDS011;7593;49.006;8.372;2023-05-07T05:56:42;4.20;;;3.25;;
14994;SDS011;7593;49.006;8.372;2023-05-07T05:59:11;5.30;;;3.30;;
14994;SDS011;7593;49.006;8.372;2023-05-07T06:01:37;4.40;;;3.33;;
14994;SDS011;7593;49.006;8.372;2023-05-07T06:04:04;3.60;;;3.28;;
14994;SDS011;7593;49.006;8.372;2023-05-07T06:06:31;3.55;;;3.00;;
14994;SDS011;7593;49.006;8.372;2023-05-07T06:08:58;4.07;;;3.40;;
14994;SDS011;7593;49.006;8.372;2023-05-07T06:11:25;3.35;;;3.00;;
14994;SDS011;7593;49.006;8.372;2023-05-07T06:13:52;3.38;;;2.95;;
14994;SDS011;7593;49.006;8.372;2023-05-07T06:16:20;3.28;;;2.97;;
14994;SDS011;7593;49.006;8.372;2023-05-07T06:18:46;2.85;;;2.58;;
14994;SDS011;7593;49.006;8.372;2023-05-07T06:21:13;3.60;;;2.85;;
14994;SDS011;7593;49.006;8.372;2023-05-07T06:23:40;6.63;;;2.80;;
14994;SDS011;7593;49.006;8.372;2023-05-07T06:26:07;3.90;;;3.00;;
14994;SDS011;7593;49.006;8.372;2023-05-07T06:28:34;6.32;;;3.10;;
14994;SDS011;7593;49.006;8.372;2023-05-07T06:31:11;3.00;;;2.55;;
14994;SDS011;7593;49.006;8.372;2023-05-07T06:33:40;2.70;;;2.50;;
14994;SDS011;7593;49.006;8.372;2023-05-07T06:36:08;4.82;;;2.72;;
14994;SDS011;7593;49.006;8.372;2023-05-07T06:38:35;3.38;;;2.90;;
14994;SDS011;7593;49.006;8.372;2023-05-07T06:41:02;3.58;;;2.72;;
14994;SDS011;7593;49.006;8.372;2023-05-07T06:43:28;3.47;;;2.60;;
14994;SDS011;7593;49.006;8.372;2023-05-07T06:45:55;5.70;;;2.90;;
14994;SDS011;7593;49.006;8.372;2023-05-07T06:48:22;2.95;;;2.60;;
14994;SDS011;7593;49.006;8.372;2023-05-07T06:50:51;3.08;;;2.78;;
14994;SDS011;7593;49.006;8.372;2023-05-07T06:53:18;4.00;;;3.00;;
14994;SDS011;7593;49.006;8.372;2023-05-07T06:55:45;3.63;;;2.58;;
14994;SDS011;7593;49.006;8.372;2023-05-07T06:58:12;2.75;;;2.53;;
14994;SDS011;7593;49.006;8.372;2023-05-07T07:00:41;3.38;;;3.08;;
14994;SDS011;7593;49.006;8.372;2023-05-07T07:03:08;2.65;;;2.45;;
14994;SDS011;7593;49.006;8.372;2023-05-07T07:05:35;4.20;;;2.70;;
14994;SDS011;7593;49.006;8.372;2023-05-07T07:08:03;4.78;;;2.67;;
14994;SDS011;7593;49.006;8.372;2023-05-07T07:10:30;3.75;;;2.78;;
14994;SDS011;7593;49.006;8.372;2023-05-07T07:12:57;2.47;;;2.28;;
14994;SDS011;7593;49.006;8.372;2023-05-07T07:15:24;3.17;;;2.40;;
14994;SDS011;7593;49.006;8.372;2023-05-07T07:17:52;3.78;;;2.70;;
14994;SDS011;7593;49.006;8.372;2023-05-07T07:20:18;3.00;;;2.55;;
14994;SDS011;7593;49.006;8.372;2023-05-07T07:22:45;4.07;;;2.90;;
14994;SDS011;7593;49.006;8.372;2023-05-07T07:25:14;3.25;;;2.53;;
14994;SDS011;7593;49.006;8.372;2023-05-07T07:27:41;4.28;;;2.60;;
14994;SDS011;7593;49.006;8.372;2023-05-07T07:30:07;2.72;;;2.50;;
14994;SDS011;7593;49.006;8.372;2023-05-07T07:32:35;2.63;;;2.42;;
14994;SDS011;7593;49.006;8.372;2023-05-07T07:35:02;3.28;;;2.30;;
14994;SDS011;7593;49.006;8.372;2023-05-07T07:37:29;4.95;;;2.75;;
14994;SDS011;7593;49.006;8.372;2023-05-07T07:39:56;3.47;;;2.55;;
14994;SDS011;7593;49.006;8.372;2023-05-07T07:42:24;3.03;;;2.30;;
14994;SDS011;7593;49.006;8.372;2023-05-07T07:44:51;3.00;;;2.33;;
14994;SDS011;7593;49.006;8.372;2023-05-07T07:47:18;4.28;;;2.35;;
14994;SDS011;7593;49.006;8.372;2023-05-07T07:49:45;5.03;;;2.47;;
14994;SDS011;7593;49.006;8.372;2023-05-07T07:52:12;2.85;;;2.30;;
14994;SDS011;7593;49.006;8.372;2023-05-07T07:54:38;2.72;;;2.10;;
14994;SDS011;7593;49.006;8.372;2023-05-07T07:57:05;5.03;;;2.50;;
14994;SDS011;7593;49.006;8.372;2023-05-07T07:59:33;3.08;;;2.30;;
14994;SDS011;7593;49.006;8.372;2023-05-07T08:02:00;3.63;;;2.38;;
14994;SDS011;7593;49.006;8.372;2023-05-07T08:04:27;6.00;;;2.60;;
14994;SDS011;7593;49.006;8.372;2023-05-07T08:06:55;3.20;;;2.67;;
14994;SDS011;7593;49.006;8.372;2023-05-07T08:09:22;2.75;;;2.30;;
14994;SDS011;7593;49.006;8.372;2023-05-07T08:11:49;3.15;;;2.10;;
14994;SDS011;7593;49.006;8.372;2023-05-07T08:14:16;3.35;;;2.05;;
14994;SDS011;7593;49.006;8.372;2023-05-07T08:16:44;3.15;;;1.90;;
14994;SDS011;7593;49.006;8.372;2023-05-07T08:19:11;2.40;;;2.00;;
14994;SDS011;7593;49.006;8.372;2023-05-07T08:21:38;2.75;;;2.00;;
14994;SDS011;7593;49.006;8.372;2023-05-07T08:24:06;3.13;;;1.88;;
14994;SDS011;7593;49.006;8.372;2023-05-07T08:26:33;3.25;;;1.90;;
14994;SDS011;7593;49.006;8.372;2023-05-07T08:29:00;2.85;;;2.20;;
14994;SDS011;7593;49.006;8.372;2023-05-07T08:31:27;2.05;;;1.73;;
14994;SDS011;7593;49.006;8.372;2023-05-07T08:33:55;3.00;;;2.00;;
14994;SDS011;7593;49.006;8.372;2023-05-07T08:36:23;3.15;;;2.00;;
14994;SDS011;7593;49.006;8.372;2023-05-07T08:38:50;2.90;;;2.00;;
14994;SDS011;7593;49.006;8.372;2023-05-07T08:41:17;2.70;;;1.80;;
14994;SDS011;7593;49.006;8.372;2023-05-07T08:43:46;2.17;;;1.75;;
14994;SDS011;7593;49.006;8.372;2023-05-07T08:46:16;1.80;;;1.65;;
14994;SDS011;7593;49.006;8.372;2023-05-07T08:48:43;4.00;;;2.25;;
14994;SDS011;7593;49.006;8.372;2023-05-07T08:51:13;3.63;;;2.28;;
14994;SDS011;7593;49.006;8.372;2023-05-07T08:53:42;2.65;;;1.77;;
14994;SDS011;7593;49.006;8.372;2023-05-07T08:56:09;3.80;;;2.20;;
14994;SDS011;7593;49.006;8.372;2023-05-07T08:58:37;2.65;;;2.20;;
14994;SDS011;7593;49.006;8.372;2023-05-07T09:01:07;2.72;;;2.15;;
14994;SDS011;7593;49.006;8.372;2023-05-07T09:03:35;2.42;;;2.17;;
14994;SDS011;7593;49.006;8.372;2023-05-07T09:06:04;2.67;;;1.98;;
14994;SDS011;7593;49.006;8.372;2023-05-07T09:08:33;3.05;;;1.98;;
14994;SDS011;7593;49.006;8.372;2023-05-07T09:11:01;3.35;;;2.25;;
14994;SDS011;7593;49.006;8.372;2023-05-07T09:13:28;2.60;;;1.90;;
14994;SDS011;7593;49.006;8.372;2023-05-07T09:15:55;3.17;;;2.10;;
14994;SDS011;7593;49.006;8.372;2023-05-07T09:18:23;2.13;;;1.83;;
14994;SDS011;7593;49.006;8.372;2023-05-07T09:20:50;3.50;;;1.98;;
14994;SDS011;7593;49.006;8.372;2023-05-07T09:23:17;3.50;;;1.80;;
14994;SDS011;7593;49.006;8.372;2023-05-07T09:25:45;1.98;;;1.73;;
14994;SDS011;7593;49.006;8.372;2023-05-07T09:28:12;1.85;;;1.70;;
14994;SDS011;7593;49.006;8.372;2023-05-07T09:30:39;2.75;;;1.90;;
14994;SDS011;7593;49.006;8.372;2023-05-07T09:33:05;5.32;;;2.20;;
14994;SDS011;7593;49.006;8.372;2023-05-07T09:35:32;2.85;;;1.83;;
14994;SDS011;7593;49.006;8.372;2023-05-07T09:37:59;2.60;;;1.88;;
14994;SDS011;7593;49.006;8.372;2023-05-07T09:40:27;3.53;;;1.90;;
14994;SDS011;7593;49.006;8.372;2023-05-07T09:43:01;3.20;;;2.00;;
14994;SDS011;7593;49.006;8.372;2023-05-07T09:45:36;5.00;;;1.95;;
14994;SDS011;7593;49.006;8.372;2023-05-07T09:48:04;2.45;;;2.13;;
14994;SDS011;7593;49.006;8.372;2023-05-07T09:50:33;2.40;;;1.98;;
14994;SDS011;7593;49.006;8.372;2023-05-07T09:53:03;2.42;;;2.08;;
14994;SDS011;7593;49.006;8.372;2023-05-07T09:55:30;3.15;;;2.25;;
14994;SDS011;7593;49.006;8.372;2023-05-07T09:57:58;2.50;;;2.10;;
14994;SDS011;7593;49.006;8.372;2023-05-07T10:00:27;3.70;;;2.10;;
14994;SDS011;7593;49.006;8.372;2023-05-07T10:02:57;3.42;;;2.10;;
14994;SDS011;7593;49.006;8.372;2023-05-07T10:05:24;2.45;;;2.10;;
14994;SDS011;7593;49.006;8.372;2023-05-07T10:07:52;3.22;;;2.30;;
14994;SDS011;7593;49.006;8.372;2023-05-07T10:10:22;3.40;;;2.30;;
14994;SDS011;7593;49.006;8.372;2023-05-07T10:12:50;3.58;;;2.17;;
14994;SDS011;7593;49.006;8.372;2023-05-07T10:15:20;2.20;;;2.00;;
14994;SDS011;7593;49.006;8.372;2023-05-07T10:17:49;2.05;;;1.60;;
14994;SDS011;7593;49.006;8.372;2023-05-07T10:20:17;2.30;;;1.90;;
14994;SDS011;7593;49.006;8.372;2023-05-07T10:22:45;2.97;;;2.08;;
14994;SDS011;7593;49.006;8.372;2023-05-07T10:25:14;2.22;;;2.03;;
14994;SDS011;7593;49.006;8.372;2023-05-07T10:27:44;2.53;;;2.03;;
14994;SDS011;7593;49.006;8.372;2023-05-07T10:30:15;3.55;;;1.90;;
14994;SDS011;7593;49.006;8.372;2023-05-07T10:32:50;3.60;;;2.17;;
14994;SDS011;7593;49.006;8.372;2023-05-07T10:35:20;3.95;;;1.95;;
14994;SDS011;7593;49.006;8.372;2023-05-07T10:37:50;2.67;;;1.92;;
14994;SDS011;7593;49.006;8.372;2023-05-07T10:40:17;4.85;;;1.90;;
14994;SDS011;7593;49.006;8.372;2023-05-07T10:42:56;2.20;;;1.90;;
14994;SDS011;7593;49.006;8.372;2023-05-07T10:45:26;3.33;;;1.80;;
14994;SDS011;7593;49.006;8.372;2023-05-07T10:48:06;4.03;;;2.17;;
14994;SDS011;7593;49.006;8.372;2023-05-07T10:50:34;2.10;;;1.90;;
14994;SDS011;7593;49.006;8.372;2023-05-07T10:53:20;2.08;;;1.80;;
14994;SDS011;7593;49.006;8.372;2023-05-07T10:58:51;2.10;;;1.90;;
14994;SDS011;7593;49.006;8.372;2023-05-07T11:04:17;4.50;;;1.92;;
14994;SDS011;7593;49.006;8.372;2023-05-07T11:09:55;2.42;;;1.80;;
14994;SDS011;7593;49.006;8.372;2023-05-07T11:18:01;2.75;;;1.90;;
14994;SDS011;7593;49.006;8.372;2023-05-07T11:26:23;2.17;;;1.88;;
14994;SDS011;7593;49.006;8.372;2023-05-07T11:28:51;2.75;;;1.83;;
14994;SDS011;7593;49.006;8.372;2023-05-07T11:31:22;2.75;;;1.90;;
14994;SDS011;7593;49.006;8.372;2023-05-07T11:33:52;2.95;;;1.92;;
14994;SDS011;7593;49.006;8.372;2023-05-07T11:36:20;1.98;;;1.70;;
14994;SDS011;7593;49.006;8.372;2023-05-07T11:38:48;2.83;;;1.88;;
14994;SDS011;7593;49.006;8.372;2023-05-07T11:41:15;3.28;;;1.60;;
14994;SDS011;7593;49.006;8.372;2023-05-07T11:43:57;3.63;;;1.70;;
14994;SDS011;7593;49.006;8.372;2023-05-07T11:46:27;2.67;;;1.73;;
14994;SDS011;7593;49.006;8.372;2023-05-07T11:48:56;3.72;;;1.55;;
14994;SDS011;7593;49.006;8.372;2023-05-07T11:51:24;2.95;;;1.60;;
14994;SDS011;7593;49.006;8.372;2023-05-07T11:53:52;2.03;;;1.60;;
14994;SDS011;7593;49.006;8.372;2023-05-07T11:56:19;2.88;;;1.58;;
14994;SDS011;7593;49.006;8.372;2023-05-07T11:58:47;3.50;;;1.55;;
14994;SDS011;7593;49.006;8.372;2023-05-07T12:01:16;2.25;;;1.40;;
14994;SDS011;7593;49.006;8.372;2023-05-07T12:03:44;1.95;;;1.60;;
14994;SDS011;7593;49.006;8.372;2023-05-07T12:06:14;2.55;;;1.70;;
14994;SDS011;7593;49.006;8.372;2023-05-07T12:08:42;3.78;;;1.77;;
14994;SDS011;7593;49.006;8.372;2023-05-07T12:11:12;3.33;;;1.75;;
14994;SDS011;7593;49.006;8.372;2023-05-07T12:13:41;2.05;;;1.63;;
14994;SDS011;7593;49.006;8.372;2023-05-07T12:16:10;3.63;;;1.85;;
14994;SDS011;7593;49.006;8.372;2023-05-07T12:18:38;5.28;;;2.05;;
14994;SDS011;7593;49.006;8.372;2023-05-07T12:21:06;2.20;;;1.80;;
14994;SDS011;7593;49.006;8.372;2023-05-07T12:23:35;2.10;;;1.50;;
14994;SDS011;7593;49.006;8.372;2023-05-07T12:26:03;3.55;;;1.80;;
14994;SDS011;7593;49.006;8.372;2023-05-07T12:28:35;4.60;;;2.00;;
14994;SDS011;7593;49.006;8.372;2023-05-07T12:31:03;3.72;;;1.88;;
14994;SDS011;7593;49.006;8.372;2023-05-07T12:33:33;5.18;;;1.90;;
14994;SDS011;7593;49.006;8.372;2023-05-07T12:36:05;3.85;;;1.80;;
14994;SDS011;7593;49.006;8.372;2023-05-07T12:38:38;3.28;;;2.10;;
14994;SDS011;7593;49.006;8.372;2023-05-07T12:41:06;2.92;;;1.95;;
14994;SDS011;7593;49.006;8.372;2023-05-07T12:43:33;3.30;;;2.00;;
14994;SDS011;7593;49.006;8.372;2023-05-07T12:46:01;2.75;;;1.85;;
14994;SDS011;7593;49.006;8.372;2023-05-07T12:48:29;2.45;;;2.00;;
14994;SDS011;7593;49.006;8.372;2023-05-07T12:50:57;4.68;;;2.33;;
14994;SDS011;7593;49.006;8.372;2023-05-07T12:53:25;3.65;;;2.30;;
14994;SDS011;7593;49.006;8.372;2023-05-07T12:55:55;2.20;;;2.00;;
14994;SDS011;7593;49.006;8.372;2023-05-07T12:58:24;2.60;;;1.90;;
14994;SDS011;7593;49.006;8.372;2023-05-07T13:00:52;3.60;;;2.10;;
14994;SDS011;7593;49.006;8.372;2023-05-07T13:03:23;3.92;;;2.22;;
14994;SDS011;7593;49.006;8.372;2023-05-07T13:05:51;3.47;;;2.10;;
14994;SDS011;7593;49.006;8.372;2023-05-07T13:08:28;4.20;;;2.13;;
14994;SDS011;7593;49.006;8.372;2023-05-07T13:10:58;3.95;;;2.05;;
14994;SDS011;7593;49.006;8.372;2023-05-07T13:13:28;5.00;;;2.00;;
14994;SDS011;7593;49.006;8.372;2023-05-07T13:15:55;2.50;;;2.30;;
14994;SDS011;7593;49.006;8.372;2023-05-07T13:18:22;2.90;;;2.22;;
14994;SDS011;7593;49.006;8.372;2023-05-07T13:20:50;2.95;;;2.60;;
14994;SDS011;7593;49.006;8.372;2023-05-07T13:23:18;4.50;;;2.60;;
14994;SDS011;7593;49.006;8.372;2023-05-07T13:25:45;4.28;;;3.13;;
14994;SDS011;7593;49.006;8.372;2023-05-07T13:28:13;2.90;;;2.70;;
14994;SDS011;7593;49.006;8.372;2023-05-07T13:30:40;3.40;;;2.53;;
14994;SDS011;7593;49.006;8.372;2023-05-07T13:33:07;3.50;;;2.28;;
14994;SDS011;7593;49.006;8.372;2023-05-07T13:35:35;4.32;;;2.38;;
14994;SDS011;7593;49.006;8.372;2023-05-07T13:38:02;3.67;;;2.30;;
14994;SDS011;7593;49.006;8.372;2023-05-07T13:40:29;3.35;;;2.40;;
14994;SDS011;7593;49.006;8.372;2023-05-07T13:42:56;2.92;;;2.50;;
14994;SDS011;7593;49.006;8.372;2023-05-07T13:45:26;3.13;;;2.45;;
14994;SDS011;7593;49.006;8.372;2023-05-07T13:47:54;4.20;;;2.30;;
14994;SDS011;7593;49.006;8.372;2023-05-07T13:50:21;3.65;;;2.08;;
14994;SDS011;7593;49.006;8.372;2023-05-07T13:52:48;3.25;;;2.20;;
14994;SDS011;7593;49.006;8.372;2023-05-07T13:55:17;3.63;;;2.00;;
14994;SDS011;7593;49.006;8.372;2023-05-07T13:57:45;2.17;;;1.98;;
14994;SDS011;7593;49.006;8.372;2023-05-07T14:00:13;3.45;;;2.10;;
14994;SDS011;7593;49.006;8.372;2023-05-07T14:02:42;2.67;;;1.80;;
14994;SDS011;7593;49.006;8.372;2023-05-07T14:05:09;2.30;;;2.10;;
14994;SDS011;7593;49.006;8.372;2023-05-07T14:07:36;3.95;;;2.25;;
14994;SDS011;7593;49.006;8.372;2023-05-07T14:10:03;3.30;;;2.50;;
14994;SDS011;7593;49.006;8.372;2023-05-07T14:12:31;4.72;;;3.22;;
14994;SDS011;7593;49.006;8.372;2023-05-07T14:14:58;3.78;;;3.35;;
14994;SDS011;7593;49.006;8.372;2023-05-07T14:17:25;4.65;;;3.35;;
14994;SDS011;7593;49.006;8.372;2023-05-07T14:19:54;4.55;;;4.03;;
14994;SDS011;7593;49.006;8.372;2023-05-07T14:22:21;5.00;;;3.88;;
14994;SDS011;7593;49.006;8.372;2023-05-07T14:24:48;4.93;;;3.67;;
14994;SDS011;7593;49.006;8.372;2023-05-07T14:27:16;4.65;;;3.38;;
14994;SDS011;7593;49.006;8.372;2023-05-07T14:29:43;4.90;;;3.55;;
14994;SDS011;7593;49.006;8.372;2023-05-07T14:32:10;3.88;;;3.30;;
14994;SDS011;7593;49.006;8.372;2023-05-07T14:34:38;4.43;;;3.70;;
14994;SDS011;7593;49.006;8.372;2023-05-07T14:37:06;4.13;;;3.08;;
14994;SDS011;7593;49.006;8.372;2023-05-07T14:39:33;4.70;;;2.50;;
14994;SDS011;7593;49.006;8.372;2023-05-07T14:42:00;3.00;;;1.95;;
14994;SDS011;7593;49.006;8.372;2023-05-07T14:44:27;2.90;;;2.15;;
14994;SDS011;7593;49.006;8.372;2023-05-07T14:46:54;2.63;;;2.00;;
14994;SDS011;7593;49.006;8.372;2023-05-07T14:49:21;1.98;;;1.60;;
14994;SDS011;7593;49.006;8.372;2023-05-07T14:51:48;2.95;;;1.60;;
14994;SDS011;7593;49.006;8.372;2023-05-07T14:54:16;2.28;;;1.88;;
14994;SDS011;7593;49.006;8.372;2023-05-07T14:56:43;2.13;;;1.90;;
14994;SDS011;7593;49.006;8.372;2023-05-07T14:59:10;2.33;;;1.92;;
14994;SDS011;7593;49.006;8.372;2023-05-07T15:01:38;2.47;;;2.28;;
14994;SDS011;7593;49.006;8.372;2023-05-07T15:04:07;2.90;;;1.67;;
14994;SDS011;7593;49.006;8.372;2023-05-07T15:06:36;2.10;;;1.85;;
14994;SDS011;7593;49.006;8.372;2023-05-07T15:09:03;2.35;;;1.80;;
14994;SDS011;7593;49.006;8.372;2023-05-07T15:11:31;2.95;;;1.90;;
14994;SDS011;7593;49.006;8.372;2023-05-07T15:13:58;4.78;;;2.10;;
14994;SDS011;7593;49.006;8.372;2023-05-07T15:16:25;3.05;;;1.95;;
14994;SDS011;7593;49.006;8.372;2023-05-07T15:18:56;2.10;;;1.90;;
14994;SDS011;7593;49.006;8.372;2023-05-07T15:21:31;2.72;;;2.08;;
14994;SDS011;7593;49.006;8.372;2023-05-07T15:24:01;3.60;;;2.20;;